Time;durP1;ratioP1;P1;durP2;ratioP2;P2;SDS_P1;SDS_P2;PMS_P1;PMS_P2;Temp;Humidity;BMP_temperature;BMP_pressure;BME280_temperature;BME280_humidity;BME280_pressure;Samples;Min_cycle;Max_cycle;Signal;HPM_P1;HPM_P2
2021/10/28 00:13:55;;;;;;;14.40;6.93;;;;;;;17.19;36.26;99016.78;5061592;28;20519;-68
2021/10/28 00:16:29;;;;;;;18.77;7.88;;;;;;;17.17;36.10;99012.66;5058690;28;20126;-67
2021/10/28 00:19:01;;;;;;;15.55;7.72;;;;;;;16.82;36.80;99002.31;5060230;28;20040;-72
2021/10/28 00:21:36;;;;;;;14.48;6.78;;;;;;;17.44;36.61;98987.31;5058517;28;20085;-67
2021/10/28 00:24:05;;;;;;;11.40;7.00;;;;;;;17.18;36.53;98982.09;5075441;28;20036;-67
2021/10/28 00:26:33;;;;;;;14.60;8.23;;;;;;;16.87;37.31;98982.91;5058615;28;20388;-66
2021/10/28 00:29:02;;;;;;;12.68;7.60;;;;;;;17.27;36.60;98976.28;5058654;28;20130;-68
2021/10/28 00:31:30;;;;;;;15.73;7.70;;;;;;;17.42;36.16;98981.34;5075075;28;20212;-68
2021/10/28 00:33:56;;;;;;;18.17;7.65;;;;;;;16.41;37.31;98987.59;5075149;28;20097;-71
2021/10/28 00:36:23;;;;;;;15.90;7.50;;;;;;;16.93;36.77;98970.50;5075110;28;20054;-66
2021/10/28 00:38:49;;;;;;;12.45;7.65;;;;;;;16.86;37.02;98959.81;5075097;28;20044;-67
2021/10/28 00:41:18;;;;;;;14.52;8.25;;;;;;;17.08;36.68;98955.78;5074925;28;20062;-66
2021/10/28 00:43:46;;;;;;;17.17;8.07;;;;;;;17.14;36.91;98965.63;5075061;28;20044;-67
2021/10/28 00:46:17;;;;;;;18.63;8.88;;;;;;;16.96;37.30;98953.97;5074782;28;20040;-68
2021/10/28 00:48:46;;;;;;;13.90;8.25;;;;;;;16.73;37.88;98944.59;5041848;28;20408;-68
2021/10/28 00:51:13;;;;;;;15.57;8.20;;;;;;;16.84;37.23;98949.28;5091662;28;20040;-68
2021/10/28 00:53:39;;;;;;;18.60;8.18;;;;;;;16.97;36.86;98937.66;5074647;28;20051;-68
2021/10/28 00:56:05;;;;;;;16.70;8.85;;;;;;;16.56;37.30;98937.25;5074757;28;20067;-67
2021/10/28 00:58:32;;;;;;;17.65;9.30;;;;;;;16.41;37.86;98933.97;5057835;28;20050;-67
2021/10/28 01:01:00;;;;;;;13.95;8.27;;;;;;;16.80;37.70;98929.28;5058021;28;20131;-72
2021/10/28 01:03:27;;;;;;;19.58;8.90;;;;;;;16.79;37.32;98924.97;5074856;28;20388;-68
2021/10/28 01:05:53;;;;;;;22.63;9.40;;;;;;;16.39;37.83;98920.78;5058117;28;20051;-68
2021/10/28 01:08:19;;;;;;;16.75;9.20;;;;;;;16.44;37.82;98917.50;5074233;28;20531;-68
2021/10/28 01:10:49;;;;;;;19.40;9.05;;;;;;;16.85;37.33;98907.22;5041177;28;20048;-68
2021/10/28 01:13:16;;;;;;;15.45;9.18;;;;;;;16.63;37.91;98914.75;5041150;28;20458;-66
2021/10/28 01:15:43;;;;;;;18.08;9.30;;;;;;;16.55;37.96;98912.31;5057386;28;20487;-67
2021/10/28 01:18:10;;;;;;;15.48;8.93;;;;;;;16.80;37.54;98910.50;5040800;28;20052;-68
2021/10/28 01:20:38;;;;;;;20.63;9.30;;;;;;;16.67;37.89;98885.63;5057247;28;20089;-68
2021/10/28 01:23:06;;;;;;;15.82;8.82;;;;;;;16.82;37.43;98903.09;5024361;28;20039;-69
2021/10/28 01:25:32;;;;;;;18.58;9.90;;;;;;;16.85;37.02;98889.25;5073837;28;20510;-68
2021/10/28 01:27:58;;;;;;;16.17;9.55;;;;;;;16.61;37.62;98898.06;5074309;28;20075;-67
2021/10/28 01:30:24;;;;;;;16.77;9.68;;;;;;;16.37;37.82;98882.69;5057411;28;20179;-67
2021/10/28 01:32:50;;;;;;;19.92;9.85;;;;;;;16.30;38.14;98886.41;5073870;28;20069;-67
2021/10/28 01:35:16;;;;;;;17.80;9.93;;;;;;;16.49;37.75;98877.50;5073941;28;20058;-68
2021/10/28 01:37:44;;;;;;;19.85;10.02;;;;;;;16.88;37.42;98873.75;5057250;28;20048;-67
2021/10/28 01:40:10;;;;;;;17.48;9.50;;;;;;;16.65;37.65;98868.97;5057181;28;20040;-67
2021/10/28 01:42:39;;;;;;;18.55;10.65;;;;;;;16.53;37.88;98866.13;5057008;28;20134;-68
2021/10/28 01:45:06;;;;;;;21.75;10.32;;;;;;;16.41;38.32;98867.81;5073570;28;20583;-68
2021/10/28 01:47:32;;;;;;;22.67;10.73;;;;;;;16.02;38.94;98878.66;5056925;28;20097;-69
2021/10/28 01:49:58;;;;;;;17.67;10.43;;;;;;;16.24;38.79;98857.78;5040987;28;20047;-69
2021/10/28 01:52:24;;;;;;;18.63;10.00;;;;;;;16.27;38.39;98868.91;5040150;28;20040;-67
2021/10/28 01:54:50;;;;;;;18.13;10.02;;;;;;;16.07;38.91;98854.75;5040136;28;20036;-68
2021/10/28 01:57:22;;;;;;;18.60;10.20;;;;;;;16.53;38.55;98846.53;5057172;28;20490;-68
2021/10/28 01:59:49;;;;;;;24.70;10.50;;;;;;;16.06;38.82;98829.03;5073177;28;20048;-68
2021/10/28 02:02:15;;;;;;;22.00;10.13;;;;;;;16.42;38.40;98842.63;5056474;28;20392;-68
2021/10/28 02:04:41;;;;;;;17.88;10.68;;;;;;;16.53;37.97;98841.16;5073136;28;20040;-66
2021/10/28 02:07:07;;;;;;;22.50;10.63;;;;;;;15.99;38.65;98795.28;5091284;28;20160;-67
2021/10/28 02:09:34;;;;;;;22.10;11.25;;;;;;;16.60;37.93;98818.69;5073177;28;20081;-67
2021/10/28 02:12:01;;;;;;;21.00;11.23;;;;;;;16.48;38.26;98790.88;5073619;28;20078;-67
2021/10/28 02:14:27;;;;;;;20.38;10.20;;;;;;;16.52;38.09;98826.97;5056786;28;20040;-67
2021/10/28 02:16:52;;;;;;;20.13;11.13;;;;;;;16.17;38.55;98816.81;5072882;28;20051;-67
2021/10/28 02:19:18;;;;;;;20.85;11.43;;;;;;;16.18;38.55;98799.69;5056449;28;20040;-67
2021/10/28 02:21:44;;;;;;;19.15;10.23;;;;;;;16.11;38.61;98782.84;5039455;28;20135;-66
2021/10/28 02:24:10;;;;;;;19.02;9.98;;;;;;;16.33;38.62;98813.63;5039669;28;20051;-66
2021/10/28 02:26:36;;;;;;;21.55;10.13;;;;;;;16.11;38.88;98805.09;5039808;28;20181;-67
2021/10/28 02:29:03;;;;;;;19.45;10.20;;;;;;;16.12;38.56;98782.63;5073159;28;20127;-71
2021/10/28 02:31:31;;;;;;;19.15;9.90;;;;;;;16.23;38.74;98795.34;5039855;28;20061;-67
2021/10/28 02:33:58;;;;;;;18.95;10.88;;;;;;;16.22;38.70;98780.28;5073252;28;20486;-67
2021/10/28 02:36:23;;;;;;;18.33;10.57;;;;;;;15.61;39.62;98770.25;5072946;28;20039;-67
2021/10/28 02:38:49;;;;;;;15.65;10.23;;;;;;;16.11;39.19;98772.13;5039434;28;20519;-67
2021/10/28 02:41:16;;;;;;;16.23;9.70;;;;;;;16.27;39.12;98787.69;5055946;28;20474;-68
2021/10/28 02:43:42;;;;;;;21.38;10.40;;;;;;;16.34;38.62;98767.06;5055917;28;20048;-67
2021/10/28 02:46:08;;;;;;;19.88;11.13;;;;;;;16.17;38.60;98750.66;5039534;28;20040;-67
2021/10/28 02:48:34;;;;;;;19.30;10.65;;;;;;;16.28;38.80;98782.13;5039264;28;20415;-72
2021/10/28 02:50:59;;;;;;;18.73;10.57;;;;;;;16.43;38.59;98757.72;5056162;28;20117;-66
2021/10/28 02:53:25;;;;;;;19.25;10.65;;;;;;;16.25;38.68;98754.94;5055754;28;20169;-65
2021/10/28 02:55:51;;;;;;;21.40;11.70;;;;;;;16.25;38.79;98753.06;5072239;28;20047;-68
2021/10/28 02:58:17;;;;;;;20.75;11.13;;;;;;;16.18;38.96;98743.44;5055568;28;20048;-66
2021/10/28 03:00:43;;;;;;;19.70;11.25;;;;;;;16.31;39.03;98736.13;5055518;28;20546;-67
2021/10/28 03:03:10;;;;;;;19.58;11.02;;;;;;;16.16;39.14;98732.94;5039022;28;20067;-67
2021/10/28 03:05:37;;;;;;;20.05;11.13;;;;;;;15.87;39.90;98738.03;5090157;28;20040;-68
2021/10/28 03:08:03;;;;;;;20.55;11.63;;;;;;;15.85;40.04;98726.75;5055943;28;20119;-66
2021/10/28 03:10:29;;;;;;;20.73;11.20;;;;;;;15.65;40.05;98721.47;5090139;28;20044;-66
2021/10/28 03:12:55;;;;;;;20.90;11.30;;;;;;;15.63;40.18;98734.25;5038768;28;20051;-66
2021/10/28 03:15:23;;;;;;;21.45;11.98;;;;;;;15.87;40.13;98717.44;5041391;28;20164;-67
2021/10/28 03:26:02;;;;;;;21.02;11.20;;;;;;;15.78;39.87;98701.81;5076107;28;20047;-66
2021/10/28 03:28:28;;;;;;;18.73;11.25;;;;;;;15.43;40.84;98708.56;5059262;28;20036;-66
2021/10/28 03:30:53;;;;;;;21.80;12.27;;;;;;;15.72;40.66;98708.88;5075849;28;20036;-67
2021/10/28 03:33:22;;;;;;;23.85;12.55;;;;;;;15.72;40.31;98711.56;5042638;28;20423;-67
2021/10/28 03:35:48;;;;;;;24.17;12.57;;;;;;;15.83;40.12;98689.47;5076290;28;20101;-68
2021/10/28 03:38:27;;;;;;;24.88;13.43;;;;;;;15.57;41.36;98686.91;5059145;28;20040;-68
2021/10/28 04:30:00;;;;;;;26.10;13.43;;;;;;;15.42;43.06;98667.63;5074666;28;20109;-73
2021/10/28 04:32:27;;;;;;;21.60;12.77;;;;;;;16.26;42.15;98658.28;5074946;28;20036;-75
2021/10/28 04:34:54;;;;;;;26.50;15.02;;;;;;;15.94;42.22;98629.88;5041434;28;20142;-74
2021/10/28 04:37:20;;;;;;;20.25;13.35;;;;;;;15.92;42.46;98650.69;5075168;28;20138;-76
2021/10/28 04:39:46;;;;;;;23.20;12.98;;;;;;;15.78;42.39;98646.44;5074531;28;20062;-72
2021/10/28 04:42:13;;;;;;;20.88;12.43;;;;;;;15.77;43.02;98643.97;5042074;28;20050;-76
2021/10/28 04:44:40;;;;;;;27.80;13.40;;;;;;;15.77;42.82;98652.00;5037630;28;20047;-74
2021/10/28 04:47:07;;;;;;;30.08;15.10;;;;;;;15.75;43.30;98662.09;5091567;28;20047;-73
2021/10/28 04:49:32;;;;;;;27.05;13.52;;;;;;;15.85;42.88;98644.53;5056236;28;20039;-74
2021/10/28 04:51:58;;;;;;;31.20;15.40;;;;;;;16.21;42.28;98639.34;5056467;28;20054;-73
2021/10/28 04:54:24;;;;;;;27.77;14.43;;;;;;;16.34;42.05;98639.25;5073536;28;20044;-72
2021/10/28 04:56:50;;;;;;;24.40;13.55;;;;;;;16.36;42.11;98641.72;5056680;28;20130;-73
2021/10/28 04:59:15;;;;;;;24.98;13.05;;;;;;;16.18;42.66;98641.63;5056815;28;20050;-72
2021/10/28 05:01:42;;;;;;;22.20;12.98;;;;;;;16.20;42.60;98643.06;5073623;28;20476;-73
2021/10/28 05:04:08;;;;;;;24.67;13.43;;;;;;;16.23;42.21;98642.63;5073534;28;20059;-72
2021/10/28 05:06:34;;;;;;;25.17;13.23;;;;;;;16.16;42.33;98617.75;5056573;28;20036;-73
2021/10/28 05:09:00;;;;;;;23.40;12.88;;;;;;;16.51;41.96;98636.88;5073365;28;20042;-72
2021/10/28 05:11:28;;;;;;;24.83;12.93;;;;;;;16.16;42.13;98622.31;5072319;28;20388;-74
2021/10/28 05:13:54;;;;;;;25.00;13.30;;;;;;;16.32;42.23;98645.84;5056408;28;20046;-73
2021/10/28 05:16:20;;;;;;;19.35;11.85;;;;;;;16.36;42.28;98642.53;5072775;28;20134;-73
2021/10/28 05:18:46;;;;;;;18.73;11.20;;;;;;;16.53;41.63;98640.97;5056095;28;20698;-73
2021/10/28 05:21:14;;;;;;;19.10;11.90;;;;;;;16.78;41.83;98638.25;5056009;28;20040;-72
2021/10/28 05:23:40;;;;;;;20.17;11.02;;;;;;;16.85;41.47;98647.06;5073743;28;20071;-74
2021/10/28 05:26:07;;;;;;;20.08;11.43;;;;;;;16.52;41.60;98631.28;5023411;28;20043;-73
2021/10/28 05:28:34;;;;;;;21.42;11.15;;;;;;;16.87;42.02;98649.53;5056323;28;20051;-76
2021/10/28 05:31:00;;;;;;;20.10;11.57;;;;;;;16.86;41.72;98656.75;5072722;28;20043;-74
2021/10/28 05:33:26;;;;;;;19.33;10.57;;;;;;;16.90;41.48;98659.81;5056479;28;20357;-76
2021/10/28 05:35:52;;;;;;;16.50;10.50;;;;;;;16.56;41.62;98643.19;5056672;28;20085;-75
2021/10/28 05:38:18;;;;;;;18.17;11.15;;;;;;;16.12;43.17;98651.38;5039025;28;20410;-74
2021/10/28 05:40:44;;;;;;;20.95;10.18;;;;;;;16.27;43.07;98648.34;5040002;28;20040;-76
2021/10/28 05:43:10;;;;;;;22.70;12.15;;;;;;;17.12;41.90;98644.91;5056863;28;20040;-75
2021/10/28 05:45:36;;;;;;;18.73;11.07;;;;;;;16.67;42.56;98636.28;5039906;28;20048;-74
2021/10/28 05:48:04;;;;;;;17.55;10.70;;;;;;;16.69;42.53;98648.47;5072471;28;20552;-76
2021/10/28 05:50:30;;;;;;;18.77;11.00;;;;;;;16.71;42.65;98645.56;5072640;28;20497;-76
2021/10/28 05:52:58;;;;;;;24.17;11.68;;;;;;;17.12;41.80;98636.84;5056054;28;20415;-77
2021/10/28 05:55:24;;;;;;;20.02;10.98;;;;;;;17.22;41.75;98642.53;5072550;28;20040;-76
2021/10/28 05:57:52;;;;;;;22.20;11.38;;;;;;;17.23;41.62;98641.47;5055568;28;20048;-77
2021/10/28 06:00:20;;;;;;;20.05;11.20;;;;;;;17.37;41.79;98643.78;5091648;28;20044;-74
2021/10/28 06:02:46;;;;;;;17.75;10.32;;;;;;;16.99;42.12;98639.69;5022782;28;20067;-75
2021/10/28 06:05:12;;;;;;;18.05;10.25;;;;;;;17.26;41.48;98643.72;5055706;28;20392;-69
2021/10/28 06:07:39;;;;;;;18.98;9.57;;;;;;;17.47;41.39;98644.09;5072756;28;20044;-76
2021/10/28 06:10:06;;;;;;;14.65;9.70;;;;;;;17.58;41.29;98629.91;5072151;28;20047;-75
2021/10/28 06:12:36;;;;;;;14.95;8.75;;;;;;;17.07;41.90;98626.00;5072007;28;20570;-77
2021/10/28 06:15:04;;;;;;;16.83;9.73;;;;;;;17.25;41.89;98625.97;5072448;28;20157;-75
2021/10/28 06:17:33;;;;;;;19.52;8.95;;;;;;;17.46;41.21;98628.22;5090366;28;20189;-73
2021/10/28 06:20:02;;;;;;;15.55;9.48;;;;;;;17.76;40.92;98616.44;5072445;28;20576;-75
2021/10/28 06:22:29;;;;;;;12.80;7.90;;;;;;;17.31;41.37;98617.84;5055574;28;20039;-74
2021/10/28 06:24:56;;;;;;;13.05;8.23;;;;;;;17.50;41.39;98615.97;5055532;28;20052;-73
2021/10/28 06:27:22;;;;;;;11.88;7.78;;;;;;;17.26;41.65;98627.59;5072082;28;20047;-75
2021/10/28 06:29:48;;;;;;;12.45;7.95;;;;;;;17.13;42.04;98633.16;5055909;28;20032;-75
2021/10/28 06:32:15;;;;;;;15.00;8.80;;;;;;;17.72;41.32;98625.19;5038574;28;20058;-72
2021/10/28 06:34:43;;;;;;;14.63;8.05;;;;;;;17.38;41.58;98628.47;5072393;28;20537;-76
2021/10/28 06:37:10;;;;;;;12.95;7.97;;;;;;;16.93;42.54;98629.88;5038896;28;20487;-77
2021/10/28 06:39:36;;;;;;;15.98;8.65;;;;;;;17.22;42.28;98618.38;5071856;28;20109;-73
2021/10/28 06:42:03;;;;;;;15.02;8.55;;;;;;;17.38;41.87;98633.84;5071545;28;20647;-75
2021/10/28 06:44:30;;;;;;;17.33;9.32;;;;;;;18.04;41.17;98651.56;5089601;28;20058;-75
2021/10/28 06:46:56;;;;;;;12.32;7.32;;;;;;;17.65;41.31;98635.19;5072294;28;20054;-74
2021/10/28 06:49:22;;;;;;;9.68;6.60;;;;;;;17.42;41.52;98629.69;5054840;28;20043;-74
2021/10/28 06:51:48;;;;;;;12.27;7.90;;;;;;;17.86;41.16;98640.06;5055348;28;20070;-74
2021/10/28 06:54:31;;;;;;;10.18;6.97;;;;;;;17.73;41.38;98645.59;5038098;28;20067;-69
2021/10/28 07:02:37;;;;;;;12.27;7.30;;;;;;;17.73;41.63;98633.00;5089782;28;20044;-76
2021/10/28 07:05:04;;;;;;;13.38;6.78;;;;;;;18.23;41.12;98655.84;5090046;28;20040;-73
2021/10/28 07:07:31;;;;;;;9.98;6.57;;;;;;;18.02;41.17;98642.13;5071920;28;20047;-71
2021/10/28 07:12:36;;;;;;;12.65;6.80;;;;;;;18.02;41.49;98655.53;5055617;28;20407;-75
2021/10/28 07:15:10;;;;;;;16.77;8.10;;;;;;;17.72;42.46;98644.81;5074315;28;20048;-74
2021/10/28 08:17:11;;;;;;;6.38;4.38;;;;;;;19.75;39.01;98671.69;5068136;28;20064;-72
2021/10/28 08:19:47;;;;;;;6.50;4.10;;;;;;;19.50;39.34;98677.38;5070537;28;20048;-72
2021/10/28 08:22:31;;;;;;;8.07;4.28;;;;;;;20.01;38.83;98669.25;5024109;28;20083;-74
2021/10/28 08:30:27;;;;;;;4.85;3.70;;;;;;;20.12;38.50;98675.63;5071768;28;20352;-73
2021/10/28 08:32:54;;;;;;;6.63;2.97;;;;;;;20.48;38.21;98685.19;5054309;28;20053;-72
2021/10/28 08:35:20;;;;;;;6.03;3.50;;;;;;;20.26;38.37;98692.34;5054066;28;20142;-74
2021/10/28 08:37:51;;;;;;;6.03;3.28;;;;;;;20.15;38.31;98671.66;5037399;28;20075;-73
2021/10/28 08:40:17;;;;;;;6.72;4.25;;;;;;;20.47;38.37;98699.72;5071860;28;20048;-76
2021/10/28 08:42:44;;;;;;;4.95;4.07;;;;;;;20.19;38.45;98697.09;5070857;28;20052;-73
2021/10/28 08:45:13;;;;;;;5.18;3.63;;;;;;;20.31;38.46;98689.75;5054194;28;20044;-74
2021/10/28 08:47:49;;;;;;;5.95;4.00;;;;;;;20.38;38.22;98693.94;5054665;28;20124;-74
2021/10/28 08:50:47;;;;;;;7.25;3.85;;;;;;;20.64;38.08;98706.78;5071735;28;20049;-73
2021/10/28 08:55:50;;;;;;;6.63;5.07;;;;;;;20.96;37.40;98709.75;5071412;28;20047;-74
2021/10/28 09:24:09;;;;;;;3.63;2.25;;;;;;;21.90;35.43;98692.38;5059308;28;20047;-72
2021/10/28 09:32:43;;;;;;;2.53;2.05;;;;;;;22.79;34.33;98733.09;5089739;28;20044;-69
2021/10/28 09:51:58;;;;;;;2.65;1.65;;;;;;;23.03;34.35;98745.19;5073173;28;20481;-70
2021/10/28 09:54:42;;;;;;;2.35;1.60;;;;;;;23.05;33.56;98721.38;5072983;28;20052;-73
2021/10/28 09:57:50;;;;;;;2.28;1.45;;;;;;;23.23;33.36;98729.06;5072187;28;20039;-72
2021/10/28 10:00:16;;;;;;;1.90;1.70;;;;;;;23.02;33.82;98749.00;5072056;28;20453;-73
2021/10/28 10:05:17;;;;;;;3.13;1.80;;;;;;;22.94;33.68;98746.75;5039110;28;20044;-74
2021/10/28 10:07:44;;;;;;;4.38;2.15;;;;;;;23.13;33.71;98749.88;5056111;28;20105;-75
2021/10/28 10:10:11;;;;;;;4.07;2.03;;;;;;;23.11;33.59;98752.84;5090005;28;20533;-73
2021/10/28 10:12:38;;;;;;;3.08;2.47;;;;;;;23.17;33.54;98761.84;5071592;28;20055;-74
2021/10/28 10:15:05;;;;;;;3.70;2.28;;;;;;;23.12;33.78;98756.38;5071853;28;20548;-74
2021/10/28 10:17:33;;;;;;;2.13;1.52;;;;;;;23.26;33.34;98763.00;5089421;28;20052;-74
2021/10/28 10:20:01;;;;;;;1.58;1.48;;;;;;;23.16;33.81;98755.59;5072330;28;20044;-73
2021/10/28 11:28:30;;;;;;;6.70;1.60;;;;;;;30.97;22.07;98856.41;5058461;28;20051;-79
2021/10/28 12:56:39;;;;;;;3.42;1.13;;;;;;;24.25;28.55;99008.03;5053920;28;20844;-75
2021/10/28 13:02:37;;;;;;;3.05;1.27;;;;;;;23.75;29.28;99013.88;5051183;28;20040;-74
2021/10/28 15:36:05;;;;;;;2.22;1.10;;;;;;;21.33;31.95;99375.38;5091945;28;20138;-75
2021/10/28 15:41:30;;;;;;;2.22;0.95;;;;;;;21.31;31.69;99378.31;5042439;28;20892;-75
2021/10/28 16:24:07;;;;;;;1.67;1.10;;;;;;;20.85;31.63;99494.25;5091382;28;20075;-75
2021/10/28 16:26:33;;;;;;;5.82;1.10;;;;;;;20.90;31.96;99494.41;5074719;28;20051;-75
2021/10/28 16:29:02;;;;;;;1.50;1.10;;;;;;;20.89;31.91;99500.88;5074446;28;20040;-75
2021/10/28 16:31:28;;;;;;;2.63;1.02;;;;;;;20.71;32.21;99514.34;5074934;28;20044;-75
2021/10/28 16:33:53;;;;;;;2.47;1.20;;;;;;;20.75;32.15;99523.66;5073824;28;20058;-75
2021/10/28 16:36:23;;;;;;;2.28;1.27;;;;;;;20.76;31.97;99525.31;5073702;28;20040;-76
2021/10/28 16:38:50;;;;;;;1.88;1.20;;;;;;;20.55;32.35;99490.69;5057814;28;20043;-75
2021/10/28 16:41:29;;;;;;;2.97;1.05;;;;;;;21.39;31.42;99541.94;5056620;28;20040;-73
2021/10/28 16:43:55;;;;;;;1.85;1.10;;;;;;;20.49;31.96;99499.69;5074364;28;20040;-75
2021/10/28 16:46:20;;;;;;;1.30;1.20;;;;;;;20.45;32.23;99530.03;5041397;28;20473;-77
2021/10/28 16:48:46;;;;;;;3.75;2.05;;;;;;;20.46;32.11;99558.66;5074511;28;20492;-73
2021/10/28 16:51:12;;;;;;;1.65;1.10;;;;;;;20.44;32.34;99569.69;5092352;28;20075;-76
2021/10/28 16:53:38;;;;;;;1.77;1.17;;;;;;;20.60;31.82;99579.91;5056734;28;20046;-75
2021/10/28 16:56:04;;;;;;;2.55;0.85;;;;;;;20.61;31.70;99591.50;5040070;28;20123;-77
2021/10/28 16:58:30;;;;;;;1.65;1.10;;;;;;;20.23;31.59;99567.41;5073322;28;20055;-77
2021/10/28 17:00:56;;;;;;;2.47;1.00;;;;;;;20.29;31.69;99606.13;5091624;28;20040;-74
2021/10/28 17:03:22;;;;;;;1.10;1.00;;;;;;;20.44;30.86;99603.91;5057253;28;20036;-77
2021/10/28 17:05:49;;;;;;;1.15;0.90;;;;;;;20.33;31.06;99616.25;5056923;28;20052;-73
2021/10/28 17:08:15;;;;;;;0.95;0.80;;;;;;;20.36;30.15;99621.22;5055670;28;20172;-71
2021/10/28 17:10:41;;;;;;;0.75;0.65;;;;;;;20.23;29.66;99621.34;5054728;28;20134;-74
2021/10/28 17:13:07;;;;;;;0.60;0.60;;;;;;;20.21;29.83;99634.22;5070989;28;20048;-73
2021/10/28 17:15:33;;;;;;;0.93;0.70;;;;;;;20.08;29.77;99626.22;5037704;28;20488;-72
2021/10/28 17:17:58;;;;;;;1.05;0.93;;;;;;;20.01;29.90;99628.94;5054451;28;20071;-72
2021/10/28 17:20:26;;;;;;;2.05;0.73;;;;;;;19.98;29.64;99634.78;5071425;28;20072;-72
2021/10/28 17:22:54;;;;;;;3.33;0.70;;;;;;;20.04;29.66;99627.69;5056152;28;20067;-72
2021/10/28 17:25:21;;;;;;;0.98;0.75;;;;;;;20.11;29.52;99661.63;5056920;28;20046;-72
2021/10/28 17:27:48;;;;;;;1.85;0.70;;;;;;;19.95;29.92;99615.50;5073346;28;20488;-72
2021/10/28 17:30:15;;;;;;;1.45;0.90;;;;;;;20.11;29.81;99656.25;5055835;28;20040;-72
2021/10/28 17:32:42;;;;;;;0.73;0.70;;;;;;;20.02;29.92;99656.72;5071642;28;20071;-72
2021/10/28 17:35:09;;;;;;;1.60;0.75;;;;;;;20.17;29.65;99648.38;5072815;28;20174;-72
2021/10/28 17:37:35;;;;;;;1.80;1.30;;;;;;;20.20;29.46;99659.53;5091126;28;20527;-72
2021/10/28 17:40:01;;;;;;;0.80;0.80;;;;;;;20.00;29.68;99646.16;5039530;28;20530;-74
2021/10/28 17:42:27;;;;;;;2.65;1.75;;;;;;;19.94;29.82;99638.94;5056111;28;20044;-73
2021/10/28 17:44:56;;;;;;;2.30;1.10;;;;;;;19.83;29.96;99645.03;5072316;28;20054;-73
2021/10/28 17:47:26;;;;;;;1.17;0.82;;;;;;;20.22;29.85;99635.06;5023401;28;20388;-73
2021/10/28 17:49:53;;;;;;;1.70;0.77;;;;;;;19.97;30.08;99651.19;5055374;28;20130;-73
2021/10/28 17:52:19;;;;;;;1.23;1.00;;;;;;;20.00;30.24;99653.44;5055454;28;20051;-72
2021/10/28 17:54:46;;;;;;;1.13;0.90;;;;;;;20.01;30.22;99647.81;5072792;28;20047;-70
2021/10/28 17:57:13;;;;;;;0.93;0.80;;;;;;;19.85;30.32;99659.13;5056073;28;20491;-73
2021/10/28 17:59:39;;;;;;;3.70;0.80;;;;;;;19.75;30.23;99660.63;5072582;28;20079;-74
2021/10/28 18:02:05;;;;;;;0.93;0.80;;;;;;;19.56;30.54;99635.44;5055465;28;20082;-73
2021/10/28 18:04:33;;;;;;;4.30;1.05;;;;;;;19.69;30.29;99667.72;5055706;28;20096;-72
2021/10/28 18:06:59;;;;;;;2.10;1.60;;;;;;;19.65;30.55;99693.44;5055196;28;20089;-72
2021/10/28 18:09:26;;;;;;;4.78;3.75;;;;;;;19.67;30.54;99680.59;5055303;28;20047;-73
2021/10/28 18:11:53;;;;;;;5.03;2.30;;;;;;;19.61;30.74;99686.00;5071757;28;20044;-73
2021/10/28 18:14:19;;;;;;;3.40;1.70;;;;;;;19.62;30.84;99699.25;5055537;28;20405;-73
2021/10/28 18:16:44;;;;;;;3.17;2.03;;;;;;;19.68;30.95;99705.66;5038728;28;20052;-72
2021/10/28 18:19:11;;;;;;;6.05;2.20;;;;;;;19.57;31.03;99696.38;5076340;28;20503;-74
2021/10/28 18:21:40;;;;;;;4.60;2.00;;;;;;;19.87;30.91;99715.50;5038777;28;20040;-76
2021/10/28 18:24:07;;;;;;;3.50;1.60;;;;;;;19.63;30.99;99725.19;5039337;28;20052;-76
2021/10/28 18:26:33;;;;;;;3.72;1.80;;;;;;;19.60;31.06;99722.88;5055086;28;20571;-75
2021/10/28 18:28:59;;;;;;;3.28;2.10;;;;;;;19.72;30.45;99741.91;5071623;28;20054;-75
2021/10/28 18:31:26;;;;;;;3.97;2.67;;;;;;;19.56;30.37;99716.28;5038425;28;20076;-75
2021/10/28 18:33:56;;;;;;;4.32;2.10;;;;;;;19.78;30.45;99744.59;5055591;28;20043;-74
2021/10/28 18:36:23;;;;;;;3.30;2.20;;;;;;;19.51;30.51;99755.69;5055380;28;20079;-77
2021/10/28 18:38:49;;;;;;;4.50;2.17;;;;;;;19.38;30.61;99761.94;5089819;28;20108;-76
2021/10/28 18:41:17;;;;;;;3.03;2.13;;;;;;;19.71;30.08;99786.09;5038654;28;20556;-70
2021/10/28 18:43:46;;;;;;;4.60;2.45;;;;;;;19.83;29.89;99774.41;5055746;28;20044;-74
2021/10/28 18:46:16;;;;;;;4.40;2.65;;;;;;;19.52;30.11;99760.88;5054680;28;20044;-77
2021/10/28 18:48:42;;;;;;;4.78;2.63;;;;;;;19.44;29.98;99793.41;5055686;28;20039;-76
2021/10/28 18:51:09;;;;;;;2.70;2.20;;;;;;;19.43;29.54;99789.06;5038469;28;20055;-74
2021/10/28 18:53:40;;;;;;;6.55;3.45;;;;;;;19.66;29.44;99813.69;5055400;28;20832;-76
2021/10/28 18:56:06;;;;;;;5.25;3.65;;;;;;;19.28;29.59;99793.84;5071613;28;21164;-76
2021/10/28 18:58:33;;;;;;;6.18;3.35;;;;;;;19.15;29.81;99810.00;5037944;28;20044;-75
2021/10/28 19:01:00;;;;;;;6.20;3.25;;;;;;;19.23;29.94;99825.97;5054763;28;20043;-74
2021/10/28 19:03:26;;;;;;;4.88;3.20;;;;;;;19.37;29.42;99833.00;5071955;28;20032;-78
2021/10/28 19:05:54;;;;;;;4.45;3.25;;;;;;;19.37;29.56;99837.56;5090235;28;20036;-73
2021/10/28 19:08:21;;;;;;;4.53;2.97;;;;;;;19.22;29.55;99837.75;5073124;28;20040;-78
2021/10/28 19:10:47;;;;;;;3.78;2.67;;;;;;;19.15;29.52;99831.56;5071871;28;20419;-74
2021/10/28 19:13:13;;;;;;;4.75;3.35;;;;;;;18.94;29.43;99817.47;5071274;28;20039;-75
2021/10/28 19:15:40;;;;;;;4.88;3.00;;;;;;;19.13;29.39;99844.38;5089245;28;20063;-68
2021/10/28 19:18:06;;;;;;;4.20;3.50;;;;;;;19.27;29.27;99839.81;5070882;28;20134;-71
2021/10/28 19:20:33;;;;;;;7.80;3.40;;;;;;;19.61;28.92;99847.66;5071050;28;20491;-74
2021/10/28 19:22:59;;;;;;;4.68;3.10;;;;;;;19.50;28.75;99848.31;5089284;28;20036;-74
2021/10/28 19:25:25;;;;;;;8.57;3.17;;;;;;;19.51;28.80;99836.50;5054630;28;20051;-74
2021/10/28 19:27:54;;;;;;;3.42;3.03;;;;;;;19.40;28.68;99827.22;5038469;28;20063;-77
2021/10/28 19:32:50;;;;;;;5.15;4.10;;;;;;;19.57;28.93;99847.25;5071268;28;20048;-78
2021/10/28 19:35:17;;;;;;;4.05;3.33;;;;;;;19.37;29.06;99827.59;5071575;28;20043;-75
2021/10/28 19:37:50;;;;;;;4.50;3.25;;;;;;;19.59;29.13;99855.97;5071718;28;20039;-77
2021/10/28 19:48:01;;;;;;;2.70;2.20;;;;;;;19.37;28.54;99870.69;5089422;28;20048;-78
2021/10/28 19:50:27;;;;;;;3.08;2.50;;;;;;;19.39;28.41;99881.31;5071170;28;20051;-78
2021/10/28 19:52:53;;;;;;;2.75;2.10;;;;;;;19.49;28.49;99877.13;5071170;28;20080;-78
2021/10/28 19:55:20;;;;;;;2.60;2.40;;;;;;;19.46;28.41;99885.63;5089420;28;20039;-76
2021/10/28 19:57:52;;;;;;;5.47;3.65;;;;;;;19.61;28.44;99886.22;5058689;28;20036;-73
2021/10/28 20:00:33;;;;;;;3.60;2.75;;;;;;;19.47;28.34;99889.97;5059091;28;20461;-78
2021/10/28 20:12:58;;;;;;;4.82;2.40;;;;;;;19.46;28.28;99899.09;5090438;28;20059;-78
2021/10/28 20:13:59;;;;;;;4.20;1.83;;;;;;;19.58;28.33;99891.19;5079722;28;19924;-76
2021/10/28 20:21:53;;;;;;;6.00;2.55;;;;;;;19.54;28.12;99887.28;5026075;28;20047;-81
2021/10/28 20:24:20;;;;;;;5.18;2.78;;;;;;;19.62;28.07;99889.75;5061844;28;20040;-76
2021/10/28 20:26:46;;;;;;;7.30;3.05;;;;;;;19.56;28.35;99899.50;5062511;28;20138;-75
2021/10/28 20:29:12;;;;;;;4.22;2.55;;;;;;;19.51;28.07;99875.03;5061057;28;20511;-81
2021/10/28 20:31:38;;;;;;;5.03;2.75;;;;;;;19.76;28.26;99911.06;5061650;28;20408;-80
2021/10/28 20:34:27;;;;;;;5.15;2.83;;;;;;;19.72;27.97;99907.16;5061919;28;20124;-78
2021/10/28 20:37:08;;;;;;;7.60;4.30;;;;;;;19.87;27.78;99913.13;5062097;28;20055;-77
2021/10/28 20:39:40;;;;;;;3.55;2.47;;;;;;;20.16;27.91;99919.09;5043696;28;20135;-76
2021/10/28 20:42:07;;;;;;;6.28;3.05;;;;;;;19.96;27.70;99884.06;5043736;28;20048;-77
2021/10/28 20:44:33;;;;;;;6.72;3.03;;;;;;;20.03;27.81;99912.66;5057933;28;20086;-77
2021/10/28 20:47:00;;;;;;;3.20;2.20;;;;;;;20.08;27.91;99920.16;5060765;28;20154;-77
2021/10/28 20:49:26;;;;;;;6.20;2.30;;;;;;;19.90;27.97;99936.13;5044217;28;20045;-77
2021/10/28 20:51:52;;;;;;;4.60;2.50;;;;;;;20.02;27.83;99935.28;5043500;28;20462;-78
2021/10/28 20:54:21;;;;;;;16.88;3.33;;;;;;;20.11;27.90;99934.00;5028059;28;20044;-77
2021/10/28 20:56:47;;;;;;;3.65;2.30;;;;;;;20.13;27.85;99935.69;5072211;28;20036;-75
2021/10/28 20:59:13;;;;;;;3.78;2.53;;;;;;;19.99;27.76;99935.69;5055562;28;20049;-77